Time;durP1;ratioP1;P1;durP2;ratioP2;P2;SDS_P1;SDS_P2;PMS_P1;PMS_P2;Temp;Humidity;BMP_temperature;BMP_pressure;BME280_temperature;BME280_humidity;BME280_pressure;Samples;Min_cycle;Max_cycle;Signal;HPM_P1;HPM_P2
2021/12/30 00:02:14;;;;;;;;;0.00;0.00;;;;;15.94;75.05;101207.72;4999737;28;45548;-68
2021/12/30 00:04:39;;;;;;;;;1.00;0.00;;;;;16.02;75.18;101223.00;4999823;28;45256;-68
2021/12/30 00:07:05;;;;;;;;;0.00;0.00;;;;;15.52;75.00;101148.88;4999392;28;45552;-68
2021/12/30 00:09:30;;;;;;;;;0.00;0.00;;;;;15.97;75.23;101228.84;4999557;28;46440;-68
2021/12/30 00:11:59;;;;;;;;;0.00;0.00;;;;;16.01;75.33;101224.81;4999745;28;45153;-68
2021/12/30 00:14:24;;;;;;;;;0.00;0.00;;;;;16.02;75.03;101229.19;4999608;28;45282;-68
2021/12/30 00:16:50;;;;;;;;;0.00;0.00;;;;;15.99;75.13;101226.81;4999824;28;45485;-68
2021/12/30 00:19:15;;;;;;;;;0.00;0.00;;;;;16.06;75.04;101233.22;4997643;28;45627;-67
2021/12/30 00:21:41;;;;;;;;;1.00;0.00;;;;;16.00;75.10;101222.28;4999497;28;45546;-67
2021/12/30 00:24:06;;;;;;;;;0.00;0.00;;;;;16.05;74.90;101228.84;4998142;28;45318;-68
2021/12/30 00:26:32;;;;;;;;;1.00;1.00;;;;;16.03;74.83;101232.72;4999484;28;45346;-68
2021/12/30 00:28:57;;;;;;;;;0.00;0.00;;;;;15.98;75.22;101233.19;4999137;28;46607;-68
2021/12/30 00:31:23;;;;;;;;;0.00;0.00;;;;;15.97;75.31;101228.84;4999276;28;45242;-68
2021/12/30 00:33:48;;;;;;;;;0.00;0.00;;;;;15.99;75.34;101237.53;4998221;28;45546;-68
2021/12/30 00:36:14;;;;;;;;;1.00;0.00;;;;;16.00;75.50;101228.50;4993952;28;45510;-67
2021/12/30 00:38:41;;;;;;;;;0.00;0.00;;;;;15.99;75.58;101221.47;4979493;28;46353;-68
2021/12/30 00:41:07;;;;;;;;;0.00;0.00;;;;;16.01;75.05;101230.16;4978371;28;45541;-68
2021/12/30 00:43:33;;;;;;;;;0.00;0.00;;;;;16.07;75.00;101234.88;4994533;28;45496;-68
2021/12/30 00:45:59;;;;;;;;;0.67;0.67;;;;;15.98;75.04;101225.16;4979893;28;45525;-68
2021/12/30 00:48:34;;;;;;;;;1.00;1.00;;;;;15.97;75.37;101226.16;4994342;28;48224;-68
2021/12/30 00:51:00;;;;;;;;;0.33;0.00;;;;;15.88;75.02;101219.13;4979423;28;45594;-68
2021/12/30 00:53:26;;;;;;;;;0.00;0.00;;;;;16.05;75.06;101242.25;4979479;28;45216;-69
2021/12/30 00:55:52;;;;;;;;;0.00;0.00;;;;;16.07;74.86;101252.81;4979657;28;45523;-69
2021/12/30 00:58:17;;;;;;;;;0.00;0.00;;;;;16.04;75.20;101262.03;4979534;28;46538;-69
2021/12/30 01:00:44;;;;;;;;;0.00;0.00;;;;;16.00;75.44;101266.03;4979322;28;45469;-68
2021/12/30 01:03:10;;;;;;;;;0.00;0.00;;;;;15.97;75.13;101263.69;4979452;28;45227;-68
2021/12/30 01:05:37;;;;;;;;;0.67;0.00;;;;;16.01;75.32;101267.72;4979884;28;45678;-68
2021/12/30 01:08:03;;;;;;;;;0.00;0.00;;;;;16.02;75.33;101269.44;4979034;28;45667;-68
2021/12/30 01:10:30;;;;;;;;;0.00;0.00;;;;;15.99;75.40;101261.69;4978568;28;45493;-68
2021/12/30 01:12:56;;;;;;;;;0.00;0.00;;;;;16.06;75.51;101277.97;4979384;28;45373;-68
2021/12/30 01:15:33;;;;;;;;;0.00;0.00;;;;;15.99;75.66;101272.41;4979230;28;45398;-68
2021/12/30 01:18:22;;;;;;;;;0.00;0.00;;;;;16.05;75.77;101285.19;4978977;28;45730;-69
2021/12/30 01:20:45;;;;;;;;;0.00;0.00;;;;;15.61;75.61;101220.25;4978809;28;45266;-68
2021/12/30 01:23:10;;;;;;;;;0.67;0.67;;;;;15.97;75.64;101298.56;4977680;28;45391;-69
2021/12/30 01:25:36;;;;;;;;;0.00;0.00;;;;;16.00;75.75;101314.31;4979252;28;45543;-68
2021/12/30 01:28:01;;;;;;;;;2.00;2.00;;;;;16.02;75.76;101306.13;4978875;28;46528;-69
2021/12/30 01:30:27;;;;;;;;;1.00;1.00;;;;;16.01;75.57;101310.63;4977542;28;46130;-68
2021/12/30 01:32:52;;;;;;;;;2.00;1.00;;;;;15.99;75.75;101315.31;4979025;28;45405;-68
2021/12/30 01:35:23;;;;;;;;;0.67;0.67;;;;;15.76;75.81;101279.41;4979247;28;45410;-68
2021/12/30 01:37:49;;;;;;;;;0.00;0.00;;;;;15.88;76.26;101302.25;4996498;28;45787;-67
2021/12/30 01:40:17;;;;;;;;;1.00;0.00;;;;;15.49;76.19;101257.22;4996983;28;45749;-69
2021/12/30 01:42:43;;;;;;;;;0.75;0.75;;;;;15.66;76.27;101284.94;4998487;28;45464;-68
2021/12/30 01:45:10;;;;;;;;;0.00;0.00;;;;;15.91;76.22;101331.41;4998938;28;45266;-68
2021/12/30 01:47:37;;;;;;;;;1.00;0.00;;;;;15.96;76.31;101329.06;4998013;28;45991;-69
2021/12/30 01:50:04;;;;;;;;;0.00;0.00;;;;;15.93;76.42;101329.41;4997879;28;45307;-68
2021/12/30 01:52:30;;;;;;;;;0.33;0.33;;;;;16.00;76.36;101334.94;4998053;28;45257;-71
2021/12/30 01:54:55;;;;;;;;;1.00;1.00;;;;;16.00;76.13;101334.94;4998371;28;45405;-67
2021/12/30 01:57:21;;;;;;;;;0.00;0.00;;;;;16.02;76.42;101333.78;4997958;28;45516;-68
2021/12/30 01:59:47;;;;;;;;;3.67;1.00;;;;;16.04;76.00;101337.16;4998002;28;45496;-70
2021/12/30 02:02:12;;;;;;;;;0.33;0.33;;;;;15.99;76.48;101330.56;4998161;28;45403;-68
2021/12/30 02:04:37;;;;;;;;;1.00;1.00;;;;;16.07;76.13;101339.50;4998141;28;45378;-68
2021/12/30 02:07:03;;;;;;;;;0.00;0.00;;;;;16.06;76.24;101332.44;4983965;28;47713;-68
2021/12/30 02:09:30;;;;;;;;;0.00;0.00;;;;;16.08;76.11;101343.00;4990622;28;45518;-69
2021/12/30 02:11:57;;;;;;;;;0.33;0.33;;;;;16.07;76.06;101339.50;4992778;28;45464;-70
2021/12/30 02:14:22;;;;;;;;;0.00;0.00;;;;;16.04;75.99;101330.94;4978437;28;45535;-68
2021/12/30 02:16:48;;;;;;;;;1.33;0.00;;;;;16.03;76.22;101346.19;4977957;28;46351;-68
2021/12/30 02:19:14;;;;;;;;;0.00;0.00;;;;;16.03;76.23;101356.94;4978148;28;45350;-69
2021/12/30 02:21:39;;;;;;;;;0.00;0.00;;;;;16.00;76.52;101349.19;4975948;28;45377;-68
2021/12/30 02:24:05;;;;;;;;;0.00;0.00;;;;;15.99;76.22;101352.03;4978435;28;45239;-69
2021/12/30 02:26:30;;;;;;;;;1.00;1.00;;;;;15.99;76.43;101349.34;4977870;28;46657;-68
2021/12/30 02:28:56;;;;;;;;;0.00;0.00;;;;;16.00;76.35;101359.91;4977858;28;45468;-68
2021/12/30 02:31:28;;;;;;;;;0.00;0.00;;;;;16.02;75.96;101365.13;4978329;28;45584;-68
2021/12/30 02:33:55;;;;;;;;;0.00;0.00;;;;;16.04;75.84;101369.34;4978296;28;45584;-70
2021/12/30 02:36:38;;;;;;;;;0.33;0.33;;;;;16.04;76.17;101365.81;4977788;28;46207;-68
2021/12/30 02:39:07;;;;;;;;;1.00;1.00;;;;;15.86;75.90;101344.47;4977925;28;45326;-68
2021/12/30 02:41:34;;;;;;;;;2.00;1.00;;;;;15.98;75.97;101364.59;4977681;28;45273;-69
2021/12/30 02:44:01;;;;;;;;;1.00;0.00;;;;;15.92;76.23;101362.59;4993058;28;45568;-69
2021/12/30 02:46:30;;;;;;;;;0.00;0.00;;;;;16.04;76.10;101382.75;4977615;28;46368;-69
2021/12/30 02:49:04;;;;;;;;;0.00;0.00;;;;;16.01;75.77;101379.53;4977468;28;45187;-69
2021/12/30 02:51:30;;;;;;;;;1.00;0.00;;;;;16.07;75.66;101385.09;4977932;28;45172;-70
2021/12/30 02:53:56;;;;;;;;;0.00;0.00;;;;;16.01;75.73;101375.00;4977947;28;45219;-69
2021/12/30 02:56:24;;;;;;;;;0.00;0.00;;;;;15.95;75.69;101372.97;4977382;28;48002;-68
2021/12/30 02:58:50;;;;;;;;;0.67;0.67;;;;;15.88;75.78;101374.66;4977509;28;45445;-68
2021/12/30 03:01:27;;;;;;;;;0.00;0.00;;;;;16.07;75.60;101395.81;4977580;28;45293;-68
2021/12/30 03:03:53;;;;;;;;;0.75;0.25;;;;;16.03;75.79;101393.63;4977569;28;45360;-69
2021/12/30 03:06:18;;;;;;;;;3.00;0.00;;;;;16.02;75.45;101381.22;4977339;28;45686;-70
2021/12/30 03:08:46;;;;;;;;;0.00;0.00;;;;;16.04;75.38;101385.44;4977288;28;45240;-69
2021/12/30 03:11:12;;;;;;;;;0.00;0.00;;;;;16.07;75.13;101385.09;4977396;28;45239;-69
2021/12/30 03:13:41;;;;;;;;;0.00;0.00;;;;;16.06;75.30;101388.78;4977563;28;45568;-69
2021/12/30 03:16:13;;;;;;;;;1.00;0.00;;;;;16.03;75.22;101375.69;4977230;28;46166;-68
2021/12/30 03:18:41;;;;;;;;;0.00;0.00;;;;;16.07;75.32;101379.72;4977076;28;45497;-69
2021/12/30 03:21:09;;;;;;;;;0.00;0.00;;;;;16.00;75.23;101365.28;4977582;28;45257;-69
2021/12/30 03:23:35;;;;;;;;;0.00;0.00;;;;;16.07;75.18;101382.41;4977473;28;45274;-69
2021/12/30 03:26:02;;;;;;;;;0.00;0.00;;;;;15.79;75.13;101338.06;4977079;28;45801;-69
2021/12/30 03:28:27;;;;;;;;;1.33;0.00;;;;;16.09;74.91;101388.44;4977224;28;45252;-69
2021/12/30 03:30:53;;;;;;;;;0.00;0.00;;;;;16.07;74.94;101387.78;4977555;28;45486;-69
2021/12/30 03:33:23;;;;;;;;;0.25;0.25;;;;;16.09;75.05;101396.50;4979173;28;45333;-70
2021/12/30 03:35:48;;;;;;;;;0.00;0.00;;;;;15.07;74.61;101214.41;4981314;28;47606;-70
2021/12/30 03:38:14;;;;;;;;;0.00;0.00;;;;;16.11;74.80;101399.00;4999020;28;45497;-69
2021/12/30 03:40:39;;;;;;;;;0.67;0.00;;;;;16.09;74.79;101392.97;4998866;28;45519;-69
2021/12/30 03:43:05;;;;;;;;;0.25;0.00;;;;;15.98;74.68;101369.97;5015548;28;45515;-68
2021/12/30 03:45:30;;;;;;;;;1.00;1.00;;;;;16.14;74.57;101393.31;5000154;28;45652;-70
2021/12/30 03:47:56;;;;;;;;;0.25;0.00;;;;;15.98;74.52;101369.97;5000067;28;45231;-68
2021/12/30 03:50:25;;;;;;;;;0.00;0.00;;;;;16.17;74.30;101400.19;5000274;28;45483;-70
2021/12/30 03:52:58;;;;;;;;;1.00;0.00;;;;;16.04;74.19;101371.19;5000488;28;45321;-68
2021/12/30 03:55:27;;;;;;;;;0.00;0.00;;;;;16.13;74.32;101389.78;5000014;28;46469;-69
2021/12/30 03:57:53;;;;;;;;;0.00;0.00;;;;;16.12;74.17;101393.47;4999908;28;45498;-68
2021/12/30 04:00:21;;;;;;;;;0.00;0.00;;;;;16.13;74.34;101383.59;4999944;28;45499;-68
2021/12/30 04:02:46;;;;;;;;;0.00;0.00;;;;;16.18;74.02;101391.13;5000267;28;45542;-69
2021/12/30 04:05:12;;;;;;;;;0.00;0.00;;;;;15.87;74.34;101334.59;4999319;28;46044;-70
2021/12/30 04:07:37;;;;;;;;;0.00;0.00;;;;;16.16;73.89;101385.94;4979760;28;45251;-69
2021/12/30 04:10:05;;;;;;;;;0.00;0.00;;;;;16.12;73.56;101372.03;4979896;28;45425;-69
2021/12/30 04:12:31;;;;;;;;;0.00;0.00;;;;;16.09;74.16;101369.66;4980181;28;45627;-69
2021/12/30 04:14:56;;;;;;;;;0.00;0.00;;;;;16.10;74.12;101379.41;4979774;28;45664;-69
2021/12/30 04:17:22;;;;;;;;;0.00;0.00;;;;;16.07;74.02;101382.41;4978774;28;45492;-68
2021/12/30 04:19:49;;;;;;;;;0.00;0.00;;;;;15.74;74.28;101325.16;4980010;28;45329;-69
2021/12/30 04:22:18;;;;;;;;;0.00;0.00;;;;;16.07;74.01;101374.38;4979826;28;45570;-69
2021/12/30 04:24:44;;;;;;;;;0.00;0.00;;;;;15.64;74.11;101319.13;4979668;28;48059;-68
2021/12/30 04:27:09;;;;;;;;;1.50;0.00;;;;;15.72;74.10;101324.50;4979640;28;45270;-68
2021/12/30 04:29:34;;;;;;;;;0.00;0.00;;;;;15.64;74.01;101318.28;4979717;28;45404;-68
2021/12/30 04:32:00;;;;;;;;;0.00;0.00;;;;;15.96;74.23;101371.97;4980082;28;45457;-68
2021/12/30 04:34:25;;;;;;;;;0.25;0.00;;;;;16.06;74.14;101378.06;4979817;28;45430;-69
2021/12/30 04:36:53;;;;;;;;;0.00;0.00;;;;;15.69;73.99;101313.25;4979546;28;45478;-69
2021/12/30 04:39:18;;;;;;;;;0.00;0.00;;;;;15.88;74.04;101341.63;4979660;28;45234;-69
2021/12/30 04:41:43;;;;;;;;;0.00;0.00;;;;;16.03;74.01;101374.88;4980027;28;45226;-70
2021/12/30 04:44:09;;;;;;;;;0.00;0.00;;;;;15.72;74.27;101315.59;4978755;28;46446;-68
2021/12/30 04:46:36;;;;;;;;;0.00;0.00;;;;;16.04;73.87;101374.69;4978396;28;45341;-68
2021/12/30 04:49:02;;;;;;;;;0.00;0.00;;;;;16.03;73.92;101370.34;4979412;28;45455;-67
2021/12/30 04:51:28;;;;;;;;;1.00;0.00;;;;;15.94;74.20;101368.63;4979467;28;45460;-69
2021/12/30 04:53:54;;;;;;;;;0.00;0.00;;;;;16.03;73.96;101386.44;4979371;28;45642;-68
2021/12/30 04:56:19;;;;;;;;;0.00;0.00;;;;;16.04;74.01;101404.19;4979274;28;45254;-68
2021/12/30 04:58:44;;;;;;;;;1.00;0.00;;;;;16.03;73.94;101389.13;4979564;28;45257;-68
2021/12/30 05:01:10;;;;;;;;;0.00;0.00;;;;;16.00;74.01;101385.88;4979574;28;45483;-68
2021/12/30 05:03:35;;;;;;;;;1.00;1.00;;;;;15.94;74.03;101400.81;4979016;28;45807;-68
2021/12/30 05:06:00;;;;;;;;;0.00;0.00;;;;;15.75;74.41;101377.78;4979168;28;45357;-68
2021/12/30 05:08:27;;;;;;;;;1.00;1.00;;;;;15.87;74.33;101398.94;4978922;28;45360;-69
2021/12/30 05:10:53;;;;;;;;;0.00;0.00;;;;;15.59;74.43;101384.91;4994399;28;45443;-67
2021/12/30 05:13:19;;;;;;;;;1.50;0.00;;;;;15.80;74.39;101426.38;4978936;28;46052;-69
2021/12/30 05:15:47;;;;;;;;;0.00;0.00;;;;;15.77;74.61;101431.22;4994246;28;46368;-69
2021/12/30 05:18:14;;;;;;;;;0.33;0.33;;;;;15.68;74.90;101425.00;4979175;28;45223;-68
2021/12/30 05:20:40;;;;;;;;;0.00;0.00;;;;;15.40;74.84;101370.72;4978829;28;45568;-68
2021/12/30 05:23:06;;;;;;;;;0.00;0.00;;;;;15.75;74.83;101427.88;4993784;28;46691;-69
2021/12/30 05:25:33;;;;;;;;;0.00;0.00;;;;;15.62;74.78;101412.25;4978606;28;45958;-68
2021/12/30 05:27:58;;;;;;;;;0.67;0.67;;;;;15.74;74.72;101431.56;4979034;28;45296;-68
2021/12/30 05:30:25;;;;;;;;;0.00;0.00;;;;;15.70;74.75;101423.00;4979037;28;45552;-69
2021/12/30 05:32:52;;;;;;;;;0.67;0.67;;;;;15.64;74.91;101415.63;4978658;28;47405;-68
2021/12/30 05:35:18;;;;;;;;;2.00;1.00;;;;;15.63;74.77;101418.47;4978780;28;45344;-68
2021/12/30 05:37:43;;;;;;;;;0.00;0.00;;;;;15.62;74.83;101427.50;4978814;28;45325;-68
2021/12/30 05:40:12;;;;;;;;;2.33;1.00;;;;;15.62;74.97;101435.53;4977405;28;45498;-69
2021/12/30 05:42:38;;;;;;;;;0.00;0.00;;;;;15.47;75.26;101436.09;4978685;28;46318;-69
2021/12/30 05:45:05;;;;;;;;;0.67;0.67;;;;;15.52;74.71;101455.22;4978315;28;45423;-68
2021/12/30 05:47:30;;;;;;;;;0.67;0.00;;;;;15.51;75.23;101466.09;4978511;28;45491;-69
2021/12/30 05:49:56;;;;;;;;;0.67;0.67;;;;;15.45;75.57;101466.72;4978665;28;45461;-69
2021/12/30 05:52:22;;;;;;;;;0.33;0.33;;;;;15.43;75.55;101466.91;4978280;28;46393;-69
2021/12/30 05:54:47;;;;;;;;;1.00;1.00;;;;;15.03;75.64;101391.63;4978603;28;45428;-70
2021/12/30 05:57:12;;;;;;;;;3.33;1.00;;;;;15.39;75.53;101461.97;4977346;28;45740;-68
2021/12/30 05:59:38;;;;;;;;;1.67;1.67;;;;;15.24;75.74;101445.66;4978482;28;45410;-67
2021/12/30 06:02:04;;;;;;;;;1.00;1.00;;;;;15.11;75.63;101430.00;4978215;28;47580;-69
2021/12/30 06:04:29;;;;;;;;;1.00;1.00;;;;;15.09;75.59;101432.00;4978228;28;45322;-68
2021/12/30 06:06:55;;;;;;;;;2.33;1.00;;;;;15.17;75.55;101450.78;4978391;28;45320;-68
2021/12/30 06:09:22;;;;;;;;;2.33;1.33;;;;;15.27;75.76;101488.22;4978612;28;45408;-67
2021/12/30 06:11:48;;;;;;;;;0.00;0.00;;;;;15.24;76.05;101483.16;4992957;28;48761;-68
2021/12/30 06:14:13;;;;;;;;;0.00;0.00;;;;;15.12;75.81;101474.53;4978347;28;45587;-69
2021/12/30 06:16:46;;;;;;;;;0.00;0.00;;;;;14.88;76.11;101460.94;5153320;27;45885;-69
2021/12/30 06:19:11;;;;;;;;;3.00;1.00;;;;;15.17;76.00;101487.44;5135298;27;45492;-67
2021/12/30 06:21:36;;;;;;;;;3.67;2.00;;;;;15.01;75.84;101460.53;5135596;27;45421;-68
2021/12/30 06:24:03;;;;;;;;;5.00;1.33;;;;;15.14;75.87;101483.25;5124449;27;45545;-69
2021/12/30 06:26:28;;;;;;;;;4.00;1.00;;;;;15.10;75.99;101491.75;5114243;27;46659;-69
2021/12/30 06:28:54;;;;;;;;;2.00;0.33;;;;;15.07;75.94;101487.56;5127491;27;45433;-67
2021/12/30 06:31:19;;;;;;;;;3.00;1.00;;;;;15.01;76.30;101472.09;5135266;27;45290;-68
2021/12/30 06:33:45;;;;;;;;;3.00;2.00;;;;;14.99;76.62;101478.59;5135531;27;45472;-69
2021/12/30 06:36:11;;;;;;;;;1.33;1.33;;;;;14.97;76.43;101488.63;5114454;27;46721;-68
2021/12/30 06:38:37;;;;;;;;;3.00;3.00;;;;;14.51;76.17;101410.28;5135085;27;45293;-68
2021/12/30 06:41:03;;;;;;;;;3.67;2.33;;;;;14.85;76.61;101471.97;5135368;27;45339;-69
2021/12/30 06:43:29;;;;;;;;;2.33;2.33;;;;;14.52;77.06;101444.06;5134954;27;45690;-69
2021/12/30 06:45:54;;;;;;;;;1.67;1.67;;;;;14.73;76.87;101483.91;5134681;27;45877;-69
2021/12/30 06:48:20;;;;;;;;;1.67;1.67;;;;;14.69;76.91;101471.81;5134665;27;45431;-68
2021/12/30 06:50:52;;;;;;;;;3.00;3.00;;;;;14.74;76.61;101481.06;5135151;27;45475;-69
2021/12/30 06:53:22;;;;;;;;;6.33;2.67;;;;;14.64;76.93;101477.63;5135080;27;45500;-68
2021/12/30 06:55:48;;;;;;;;;2.00;0.67;;;;;14.70;76.54;101479.69;5134664;27;46587;-68
2021/12/30 06:58:14;;;;;;;;;5.00;3.67;;;;;14.60;76.79;101482.44;5127948;27;45432;-68
2021/12/30 07:00:39;;;;;;;;;3.00;2.00;;;;;14.66;76.72;101491.72;5113981;27;45158;-68
2021/12/30 07:03:05;;;;;;;;;1.67;1.67;;;;;14.25;77.04;101423.53;5114109;27;45399;-68
2021/12/30 07:05:32;;;;;;;;;3.00;2.00;;;;;14.70;76.66;101506.47;5113960;27;46764;-68
2021/12/30 07:07:57;;;;;;;;;3.00;2.67;;;;;14.65;76.72;101505.25;5113924;27;45217;-69
2021/12/30 07:10:23;;;;;;;;;1.67;1.00;;;;;14.66;76.82;101509.59;5114112;27;45279;-69
2021/12/30 07:12:48;;;;;;;;;6.67;2.00;;;;;14.58;76.66;101508.50;5114482;27;45418;-69
2021/12/30 07:15:14;;;;;;;;;3.33;1.67;;;;;14.52;76.55;101497.56;5113191;27;45792;-68
2021/12/30 07:17:40;;;;;;;;;1.67;0.67;;;;;14.64;76.43;101520.47;5113413;27;45281;-69
2021/12/30 07:20:08;;;;;;;;;4.00;2.67;;;;;14.48;76.46;101509.56;5095356;27;45407;-68
2021/12/30 07:22:33;;;;;;;;;8.00;7.33;;;;;14.60;76.39;101537.78;5113741;27;45388;-70
2021/12/30 07:24:58;;;;;;;;;4.33;2.33;;;;;14.58;76.23;101529.06;5113438;27;46438;-69
2021/12/30 07:27:24;;;;;;;;;5.33;2.67;;;;;14.56;76.19;101531.06;5104085;27;45391;-69
2021/12/30 07:29:49;;;;;;;;;2.33;1.33;;;;;14.64;76.09;101541.88;5100046;27;45170;-68
2021/12/30 07:32:15;;;;;;;;;4.67;2.33;;;;;14.61;76.01;101534.97;5081561;27;45273;-68
2021/12/30 07:34:40;;;;;;;;;5.00;3.67;;;;;14.60;76.04;101532.44;5099523;27;46419;-69
2021/12/30 07:37:05;;;;;;;;;5.33;2.67;;;;;14.63;76.24;101532.16;5099351;27;45495;-68
2021/12/30 07:39:31;;;;;;;;;3.67;2.67;;;;;14.66;75.67;101537.22;5099995;27;45423;-67
2021/12/30 07:41:56;;;;;;;;;4.67;3.00;;;;;14.70;75.72;101540.41;5099658;27;45209;-67
2021/12/30 07:44:21;;;;;;;;;4.00;3.00;;;;;14.70;75.19;101538.56;5103299;27;45437;-68
2021/12/30 07:46:48;;;;;;;;;4.33;3.00;;;;;14.71;75.37;101542.94;5119984;27;45229;-68
2021/12/30 07:49:13;;;;;;;;;5.33;3.00;;;;;14.63;75.11;101516.09;5120039;27;45529;-68
2021/12/30 07:51:39;;;;;;;;;3.33;2.00;;;;;14.72;75.27;101533.91;5120104;27;45240;-68
2021/12/30 07:54:04;;;;;;;;;2.33;2.33;;;;;14.72;74.94;101535.75;5119932;27;45548;-69
2021/12/30 07:56:29;;;;;;;;;3.00;2.00;;;;;14.71;75.04;101536.75;5119578;27;45495;-69
2021/12/30 07:58:55;;;;;;;;;6.33;3.00;;;;;14.51;74.87;101501.25;5119828;27;45804;-68
2021/12/30 08:01:20;;;;;;;;;3.67;2.00;;;;;14.77;74.72;101552.19;5119987;27;45457;-68
2021/12/30 08:03:48;;;;;;;;;3.67;2.67;;;;;14.82;74.65;101558.78;5119581;27;46245;-69
2021/12/30 08:06:14;;;;;;;;;3.67;2.67;;;;;14.77;73.47;101549.50;5119480;27;45413;-69
2021/12/30 08:08:39;;;;;;;;;3.33;1.00;;;;;14.88;74.38;101582.28;5119788;27;45394;-69
2021/12/30 08:11:05;;;;;;;;;3.67;3.67;;;;;14.95;74.02;101590.53;5119779;27;45545;-68
2021/12/30 08:13:31;;;;;;;;;2.67;2.33;;;;;14.96;73.52;101591.38;5119335;27;46390;-69
2021/12/30 08:15:56;;;;;;;;;5.33;2.67;;;;;14.94;73.75;101599.56;5118439;27;45569;-68
2021/12/30 08:18:22;;;;;;;;;4.00;3.00;;;;;14.94;73.36;101598.72;5119555;27;45497;-68
2021/12/30 08:20:47;;;;;;;;;1.33;1.33;;;;;14.99;73.65;101609.81;5119663;27;45501;-68
2021/12/30 08:23:12;;;;;;;;;5.67;3.00;;;;;14.96;73.44;101597.56;5119210;27;45600;-68
2021/12/30 08:25:38;;;;;;;;;5.00;3.67;;;;;15.08;73.23;101601.72;5119127;27;45442;-68
2021/12/30 08:28:04;;;;;;;;;3.00;3.00;;;;;14.97;73.05;101590.38;5119327;27;45935;-68
2021/12/30 08:30:29;;;;;;;;;5.00;2.67;;;;;15.09;73.30;101607.91;5119696;27;45443;-69
2021/12/30 08:32:55;;;;;;;;;4.67;3.67;;;;;15.09;72.82;101613.28;5118866;27;45512;-68
2021/12/30 08:35:21;;;;;;;;;4.00;3.00;;;;;15.19;72.50;101630.09;5119186;27;45399;-68
2021/12/30 08:37:47;;;;;;;;;6.33;5.67;;;;;15.24;72.49;101635.88;5119100;27;45336;-68
2021/12/30 08:40:14;;;;;;;;;3.00;3.00;;;;;15.28;72.20;101633.72;5118953;27;45528;-68
2021/12/30 08:42:39;;;;;;;;;9.67;5.67;;;;;15.20;72.30;101629.09;5118707;27;46766;-67
2021/12/30 08:45:07;;;;;;;;;6.33;3.67;;;;;15.17;72.04;101626.75;5118768;27;45532;-67
2021/12/30 08:47:33;;;;;;;;;2.33;2.00;;;;;15.25;72.25;101632.19;5119066;27;45309;-70
2021/12/30 08:49:59;;;;;;;;;3.00;3.00;;;;;14.88;72.05;101568.88;5119372;27;45267;-68
2021/12/30 08:52:26;;;;;;;;;7.33;3.33;;;;;15.33;72.09;101648.34;5118633;27;47038;-68
2021/12/30 08:54:56;;;;;;;;;5.00;5.00;;;;;15.34;72.04;101650.00;5118860;27;45485;-68
2021/12/30 08:57:23;;;;;;;;;3.00;3.00;;;;;15.23;71.93;101631.50;5119147;27;45304;-67
2021/12/30 08:59:48;;;;;;;;;2.00;2.00;;;;;15.36;72.08;101637.31;5119413;27;45212;-68
2021/12/30 09:02:14;;;;;;;;;7.67;5.00;;;;;15.37;71.89;101625.59;5099906;27;47447;-67
2021/12/30 09:04:42;;;;;;;;;7.33;4.00;;;;;15.45;71.67;101638.25;5118711;27;45311;-69
2021/12/30 09:07:08;;;;;;;;;5.00;3.00;;;;;15.31;71.73;101612.81;5118491;27;45416;-69
2021/12/30 09:09:34;;;;;;;;;6.33;3.00;;;;;15.47;71.45;101633.56;5118756;27;45586;-68
2021/12/30 09:11:59;;;;;;;;;3.00;1.33;;;;;15.45;71.86;101644.44;5118546;27;47259;-68
2021/12/30 09:14:25;;;;;;;;;7.00;3.33;;;;;15.45;71.56;101640.91;5096922;27;45244;-67
2021/12/30 09:16:51;;;;;;;;;6.67;6.33;;;;;15.17;71.67;101591.91;5098122;27;45454;-69
2021/12/30 09:19:17;;;;;;;;;4.67;3.67;;;;;15.11;71.34;101579.97;5098373;27;45283;-68
2021/12/30 09:21:44;;;;;;;;;5.00;3.67;;;;;15.57;71.15;101661.09;5097488;27;46046;-68
2021/12/30 09:24:11;;;;;;;;;3.33;3.00;;;;;15.49;71.51;101648.50;5097690;27;45513;-70
2021/12/30 09:26:38;;;;;;;;;7.00;5.67;;;;;15.49;71.29;101640.44;5097542;27;45552;-69
2021/12/30 09:29:10;;;;;;;;;4.00;3.00;;;;;15.51;71.39;101641.13;5097920;27;45445;-69
2021/12/30 09:31:40;;;;;;;;;5.00;2.00;;;;;15.67;70.99;101661.91;5097272;27;46785;-69
2021/12/30 09:34:06;;;;;;;;;7.67;4.00;;;;;15.11;71.09;101568.44;5078645;27;45529;-68
2021/12/30 09:36:32;;;;;;;;;3.33;1.67;;;;;15.67;70.80;101666.44;5097738;27;45387;-69
2021/12/30 09:38:58;;;;;;;;;3.33;2.00;;;;;15.70;71.08;101671.47;5079340;27;45467;-69
2021/12/30 09:41:23;;;;;;;;;2.00;1.33;;;;;15.73;71.03;101669.31;5097462;27;47309;-69
2021/12/30 09:43:49;;;;;;;;;4.00;3.00;;;;;15.64;70.96;101645.31;5062058;27;45513;-69
2021/12/30 09:46:16;;;;;;;;;6.00;3.00;;;;;15.82;70.70;101676.47;5097229;27;45255;-69
2021/12/30 09:48:43;;;;;;;;;3.33;3.00;;;;;15.85;70.63;101675.31;5097425;27;45442;-69
2021/12/30 09:51:09;;;;;;;;;5.00;4.00;;;;;15.93;70.47;101678.03;5096856;27;45518;-68
2021/12/30 09:53:34;;;;;;;;;5.67;4.00;;;;;15.97;70.37;101671.34;5096797;27;45468;-70
2021/12/30 09:56:00;;;;;;;;;3.33;2.67;;;;;15.85;70.17;101648.47;5097366;27;45678;-69
2021/12/30 09:58:27;;;;;;;;;4.67;3.00;;;;;15.84;69.75;101651.31;5101222;27;45322;-68
2021/12/30 10:00:52;;;;;;;;;7.00;3.33;;;;;16.01;69.80;101679.91;5078515;27;47906;-69
2021/12/30 10:03:18;;;;;;;;;3.67;2.00;;;;;15.99;70.38;101671.19;5078612;27;46086;-70
2021/12/30 10:05:43;;;;;;;;;4.67;3.33;;;;;15.98;70.13;101667.66;5097568;27;45264;-69
2021/12/30 10:08:13;;;;;;;;;3.67;2.00;;;;;16.07;69.88;101677.47;5097664;27;45260;-69
2021/12/30 10:10:41;;;;;;;;;3.00;1.00;;;;;16.02;69.71;101663.69;5096598;27;45817;-69
2021/12/30 10:13:29;;;;;;;;;6.00;3.33;;;;;16.18;69.74;101681.72;5078450;27;45285;-69
2021/12/30 10:16:01;;;;;;;;;5.00;4.00;;;;;16.24;69.72;101691.00;5096503;27;45571;-68
2021/12/30 10:18:44;;;;;;;;;11.00;4.00;;;;;16.29;69.13;101684.16;5097039;27;45457;-70
2021/12/30 10:21:23;;;;;;;;;4.67;4.00;;;;;15.35;68.85;101528.44;5096463;27;46386;-68
2021/12/30 10:23:52;;;;;;;;;3.67;3.00;;;;;16.32;69.11;101677.63;5097105;27;45323;-69
2021/12/30 10:26:20;;;;;;;;;6.00;5.33;;;;;16.29;69.11;101669.91;5094416;27;45415;-70
2021/12/30 10:28:50;;;;;;;;;4.00;4.00;;;;;16.24;69.22;101637.34;5098928;27;45450;-68
2021/12/30 10:31:22;;;;;;;;;5.67;5.67;;;;;16.54;68.64;101681.59;5117241;27;45947;-68
2021/12/30 10:33:57;;;;;;;;;4.00;2.33;;;;;16.57;68.34;101662.47;5118037;27;45391;-69
2021/12/30 10:36:27;;;;;;;;;6.00;2.33;;;;;16.63;68.00;101676.13;5117346;27;45224;-70
2021/12/30 10:38:54;;;;;;;;;8.00;3.67;;;;;16.61;68.17;101667.38;5117910;27;45431;-72
2021/12/30 10:41:33;;;;;;;;;3.00;1.00;;;;;16.62;68.09;101673.59;5116939;27;45789;-69
2021/12/30 10:43:58;;;;;;;;;2.33;2.00;;;;;16.62;68.19;101690.56;5117398;27;45244;-70
2021/12/30 10:46:28;;;;;;;;;3.67;2.00;;;;;16.56;68.30;101669.69;5098501;27;45436;-68
2021/12/30 10:48:55;;;;;;;;;4.33;4.00;;;;;16.70;68.22;101681.72;5098539;27;45475;-69
2021/12/30 10:51:42;;;;;;;;;1.67;1.33;;;;;16.69;68.16;101663.94;5116643;27;46452;-69
2021/12/30 10:54:19;;;;;;;;;4.33;3.67;;;;;16.73;67.98;101659.91;5116699;27;45516;-69
2021/12/30 10:57:07;;;;;;;;;1.67;1.67;;;;;16.81;67.70;101672.50;5096879;27;45379;-68
2021/12/30 10:59:35;;;;;;;;;6.00;3.00;;;;;16.73;67.98;101654.53;5096581;27;45525;-70
2021/12/30 11:02:15;;;;;;;;;2.67;2.00;;;;;16.73;68.03;101663.44;5097263;27;45933;-69
2021/12/30 11:04:41;;;;;;;;;3.33;3.00;;;;;16.77;68.22;101663.09;5081083;27;45585;-68
2021/12/30 11:07:09;;;;;;;;;5.00;3.00;;;;;16.76;67.99;101656.06;5099453;27;45522;-69
2021/12/30 11:09:34;;;;;;;;;3.00;3.00;;;;;16.79;67.62;101651.19;5100327;27;45464;-70
2021/12/30 11:12:05;;;;;;;;;5.00;3.00;;;;;15.64;67.70;101479.09;5081274;27;48371;-68
2021/12/30 11:14:35;;;;;;;;;1.67;1.67;;;;;16.79;67.44;101664.63;5099794;27;45303;-69
2021/12/30 11:17:12;;;;;;;;;4.00;2.00;;;;;16.78;67.89;101662.94;5100044;27;45178;-68
2021/12/30 11:19:48;;;;;;;;;7.00;5.33;;;;;16.82;67.86;101663.44;5100218;27;45460;-68
2021/12/30 11:22:30;;;;;;;;;3.67;2.33;;;;;16.78;67.74;101662.09;5099469;27;46780;-69
2021/12/30 11:25:06;;;;;;;;;6.00;2.67;;;;;16.91;67.41;101683.97;5099236;27;45367;-69